createdAt,value
2018-11-28T00:00:12.293Z,0.10
2018-11-28T00:02:40.604Z,0.10
2018-11-28T00:05:10.992Z,0.10
2018-11-28T00:07:39.381Z,0.10
2018-11-28T00:10:12.749Z,0.10
2018-11-28T00:12:41.341Z,0.10
2018-11-28T00:15:11.851Z,0.10
2018-11-28T00:17:40.125Z,0.10
2018-11-28T00:20:13.657Z,0.00
2018-11-28T00:22:42.169Z,0.00
2018-11-28T00:25:11.341Z,0.00
2018-11-28T00:27:39.629Z,0.40
2018-11-28T00:30:12.818Z,0.00
2018-11-28T00:32:41.221Z,-0.10
2018-11-28T00:35:12.429Z,-0.10
2018-11-28T00:37:40.706Z,-0.10
2018-11-28T00:50:11.009Z,-0.10
2018-11-28T00:52:39.285Z,-0.10
2018-11-28T00:55:10.701Z,-0.20
2018-11-28T00:57:39.005Z,-0.20
2018-11-28T01:00:14.082Z,-0.20
2018-11-28T01:02:42.363Z,-0.20
2018-11-28T01:05:12.227Z,-0.20
2018-11-28T01:07:40.629Z,-0.30
2018-11-28T01:10:12.141Z,-0.30
2018-11-28T01:12:40.510Z,-0.30
2018-11-28T01:15:10.349Z,-0.30
2018-11-28T01:17:38.638Z,-0.30
2018-11-28T01:20:09.578Z,-0.20
2018-11-28T01:22:37.858Z,-0.30
2018-11-28T01:25:08.301Z,-0.30
2018-11-28T01:27:36.914Z,-0.30
2018-11-28T01:30:09.434Z,-0.30
2018-11-28T01:32:37.715Z,-0.40
2018-11-28T01:35:07.474Z,-0.30
2018-11-28T01:37:35.766Z,-0.40
2018-11-28T01:40:04.111Z,-0.30
2018-11-28T01:42:32.394Z,-0.40
2018-11-28T01:45:00.755Z,-0.40
2018-11-28T01:47:29.107Z,-0.40
2018-11-28T01:49:57.499Z,-0.40
2018-11-28T01:52:26.078Z,-0.40
2018-11-28T01:54:54.339Z,-0.40
2018-11-28T01:57:22.614Z,-0.40
2018-11-28T01:59:50.938Z,-0.40
2018-11-28T02:02:19.246Z,-0.40
2018-11-28T02:04:47.498Z,-0.40
2018-11-28T02:07:15.759Z,-0.40
2018-11-28T02:09:44.003Z,-0.50
2018-11-28T02:12:12.281Z,-0.40
2018-11-28T02:14:40.563Z,-0.40
2018-11-28T02:17:08.830Z,-0.40
2018-11-28T02:19:37.122Z,-0.40
2018-11-28T02:22:05.443Z,-0.40
2018-11-28T02:24:33.731Z,-0.40
2018-11-28T02:27:02.007Z,-0.40
2018-11-28T02:29:30.275Z,-0.30
2018-11-28T02:31:59.167Z,-0.40
2018-11-28T02:34:27.431Z,-0.40
2018-11-28T02:36:55.711Z,-0.30
2018-11-28T02:39:23.991Z,-0.30
2018-11-28T02:41:52.266Z,-0.30
2018-11-28T02:44:20.553Z,-0.30
2018-11-28T02:46:48.827Z,-0.30
2018-11-28T02:49:17.096Z,-0.30
2018-11-28T02:51:45.399Z,-0.30
2018-11-28T02:54:13.679Z,-0.30
2018-11-28T02:56:41.959Z,-0.30
2018-11-28T02:59:10.228Z,-0.30
2018-11-28T03:01:38.498Z,-0.40
2018-11-28T03:04:06.820Z,-0.40
2018-11-28T03:06:35.108Z,-0.40
2018-11-28T03:09:03.782Z,-0.40
2018-11-28T03:11:32.071Z,-0.40
2018-11-28T03:14:00.384Z,-0.40
2018-11-28T03:16:28.667Z,-0.40
2018-11-28T03:18:56.988Z,-0.40
2018-11-28T03:21:25.280Z,-0.40
2018-11-28T03:23:53.600Z,-0.40
2018-11-28T03:26:21.911Z,-0.30
2018-11-28T03:28:50.233Z,-0.40
2018-11-28T03:31:18.520Z,-0.40
2018-11-28T03:33:46.797Z,-0.30
2018-11-28T03:36:15.152Z,-0.40
2018-11-28T03:38:43.424Z,-0.40
2018-11-28T03:41:11.761Z,-0.40
2018-11-28T03:43:40.048Z,-0.30
2018-11-28T03:46:08.318Z,-0.30
2018-11-28T03:48:36.624Z,-0.30
2018-11-28T03:51:05.017Z,-0.30
2018-11-28T03:53:33.353Z,-0.40
2018-11-28T03:56:01.637Z,-0.30
2018-11-28T03:58:29.955Z,-0.30
2018-11-28T04:00:58.217Z,-0.30
2018-11-28T04:03:26.513Z,-0.30
2018-11-28T04:05:54.777Z,-0.30
2018-11-28T04:08:23.044Z,-0.30
2018-11-28T04:10:51.600Z,-0.20
2018-11-28T04:13:19.878Z,-0.20
2018-11-28T04:15:48.193Z,-0.20
2018-11-28T04:18:16.505Z,-0.20
2018-11-28T04:20:44.781Z,-0.20
2018-11-28T04:23:13.055Z,-0.20
2018-11-28T04:25:41.329Z,-0.20
2018-11-28T04:28:09.614Z,-0.20
2018-11-28T04:30:37.883Z,-0.30
2018-11-28T04:33:06.237Z,-0.20
2018-11-28T04:35:34.518Z,-0.20
2018-11-28T04:38:02.818Z,-0.20
2018-11-28T04:40:31.095Z,-0.20
2018-11-28T04:42:59.389Z,-0.20
2018-11-28T04:45:27.665Z,-0.20
2018-11-28T04:47:56.075Z,-0.20
2018-11-28T04:50:24.393Z,-0.20
2018-11-28T04:52:52.672Z,-0.20
2018-11-28T04:55:21.194Z,-0.20
2018-11-28T04:57:49.541Z,-0.20
2018-11-28T05:00:23.022Z,-0.20
2018-11-28T05:02:51.774Z,-0.10
2018-11-28T05:05:20.077Z,-0.10
2018-11-28T05:07:49.122Z,-0.10
2018-11-28T05:10:18.399Z,-0.10
2018-11-28T05:12:46.691Z,-0.10
2018-11-28T05:15:15.850Z,-0.10
2018-11-28T05:17:46.333Z,-0.10
2018-11-28T05:20:16.502Z,0.00
2018-11-28T05:22:44.781Z,-0.10
2018-11-28T05:25:16.185Z,-0.10
2018-11-28T05:27:44.441Z,0.00
2018-11-28T05:30:17.850Z,0.00
2018-11-28T05:32:46.125Z,0.00
2018-11-28T05:35:18.538Z,0.00
2018-11-28T05:37:47.022Z,0.10
2018-11-28T05:40:23.506Z,0.10
2018-11-28T05:42:51.894Z,0.10
2018-11-28T05:45:20.315Z,0.10
2018-11-28T05:47:48.706Z,0.10
2018-11-28T05:50:21.200Z,0.10
2018-11-28T05:52:49.573Z,0.10
2018-11-28T05:55:18.962Z,0.10
2018-11-28T05:57:47.322Z,0.20
2018-11-28T06:00:40.070Z,0.20
2018-11-28T06:03:09.293Z,0.20
2018-11-28T06:05:37.663Z,0.30
2018-11-28T06:08:07.066Z,0.30
2018-11-28T06:10:35.442Z,0.20
2018-11-28T06:13:03.975Z,0.30
2018-11-28T06:15:32.434Z,0.30
2018-11-28T06:18:00.804Z,0.20
2018-11-28T06:20:29.154Z,0.30
2018-11-28T06:22:57.490Z,0.30
2018-11-28T06:28:17.685Z,0.20
2018-11-28T06:30:46.104Z,0.30
2018-11-28T06:33:14.420Z,0.30
2018-11-28T06:35:42.849Z,0.30
2018-11-28T06:38:11.289Z,0.40
2018-11-28T06:40:39.601Z,0.40
2018-11-28T06:43:07.923Z,0.30
2018-11-28T06:45:36.290Z,0.40
2018-11-28T06:48:04.922Z,0.50
2018-11-28T06:50:33.253Z,0.50
2018-11-28T06:53:01.603Z,0.50
2018-11-28T06:55:29.913Z,0.60
2018-11-28T06:57:58.258Z,0.60
2018-11-28T07:00:26.633Z,0.60
2018-11-28T07:02:55.085Z,0.60
2018-11-28T07:05:23.592Z,0.60
2018-11-28T07:07:52.417Z,0.60
2018-11-28T07:10:21.693Z,0.60
2018-11-28T07:12:50.071Z,0.60
2018-11-28T07:15:20.993Z,0.60
2018-11-28T07:17:49.320Z,0.60
2018-11-28T07:20:17.764Z,0.70
2018-11-28T07:22:46.113Z,0.70
2018-11-28T07:25:16.053Z,0.70
2018-11-28T07:27:45.515Z,0.70
2018-11-28T07:30:16.301Z,0.70
2018-11-28T07:32:44.876Z,0.70
2018-11-28T07:35:14.333Z,0.70
2018-11-28T07:37:42.641Z,0.80
2018-11-28T07:40:12.358Z,0.70
2018-11-28T07:42:41.337Z,0.80
2018-11-28T07:45:11.336Z,0.90
2018-11-28T07:47:39.758Z,0.90
2018-11-28T07:50:10.290Z,1.00
2018-11-28T07:52:38.903Z,1.00
2018-11-28T07:55:10.024Z,1.00
2018-11-28T07:57:38.766Z,1.00
2018-11-28T08:00:15.458Z,1.10
2018-11-28T08:02:44.346Z,1.10
2018-11-28T08:05:12.878Z,1.20
2018-11-28T08:07:41.296Z,1.20
2018-11-28T08:10:16.186Z,1.20
2018-11-28T08:12:44.550Z,1.30
2018-11-28T08:15:12.974Z,1.30
2018-11-28T08:17:41.355Z,1.30
2018-11-28T08:20:10.287Z,1.30
2018-11-28T08:22:38.907Z,1.30
2018-11-28T08:25:08.743Z,1.40
2018-11-28T08:27:37.163Z,1.40
2018-11-28T08:30:11.271Z,1.40
2018-11-28T08:32:39.550Z,1.50
2018-11-28T08:35:08.623Z,1.50
2018-11-28T08:37:36.936Z,1.50
2018-11-28T08:40:08.163Z,1.50
2018-11-28T08:42:36.467Z,1.60
2018-11-28T08:45:05.020Z,1.60
2018-11-28T08:47:33.319Z,1.70
2018-11-28T08:50:01.626Z,1.70
2018-11-28T08:52:29.884Z,1.80
2018-11-28T08:54:58.135Z,1.80
2018-11-28T08:57:26.919Z,1.80
2018-11-28T08:59:55.556Z,1.90
2018-11-28T09:02:23.874Z,1.90
2018-11-28T09:04:52.156Z,1.90
2018-11-28T09:07:20.481Z,2.00
2018-11-28T09:09:49.800Z,2.00
2018-11-28T09:12:17.140Z,2.00
2018-11-28T09:14:45.768Z,2.10
2018-11-28T09:17:15.201Z,2.10
2018-11-28T09:19:42.360Z,2.30
2018-11-28T09:22:10.769Z,2.30
2018-11-28T09:24:39.016Z,2.30
2018-11-28T09:27:07.308Z,2.40
2018-11-28T09:29:35.596Z,2.50
2018-11-28T09:32:03.867Z,2.50
2018-11-28T09:34:32.120Z,2.60
2018-11-28T09:37:00.683Z,2.60
2018-11-28T09:39:29.018Z,2.70
2018-11-28T09:41:57.312Z,2.70
2018-11-28T09:44:25.977Z,2.80
2018-11-28T09:46:54.365Z,2.90
2018-11-28T09:49:22.622Z,2.90
2018-11-28T09:51:50.912Z,3.00
2018-11-28T09:54:19.185Z,3.00
2018-11-28T09:56:47.480Z,3.00
2018-11-28T09:59:15.773Z,3.00
2018-11-28T10:01:44.065Z,3.10
2018-11-28T10:04:12.377Z,3.20
2018-11-28T10:06:40.625Z,3.30
2018-11-28T10:09:09.333Z,3.30
2018-11-28T10:11:37.637Z,3.30
2018-11-28T10:14:06.342Z,3.40
2018-11-28T10:16:34.602Z,3.50
2018-11-28T10:19:02.898Z,3.60
2018-11-28T10:21:31.150Z,3.70
2018-11-28T10:23:59.414Z,3.70
2018-11-28T10:26:28.098Z,3.80
2018-11-28T10:28:56.383Z,3.90
2018-11-28T10:31:24.639Z,4.00
2018-11-28T10:33:53.333Z,4.00
2018-11-28T10:36:21.842Z,4.00
2018-11-28T10:38:50.115Z,4.00
2018-11-28T10:41:18.406Z,3.90
2018-11-28T10:43:46.784Z,3.90
2018-11-28T10:46:15.169Z,4.00
2018-11-28T10:48:43.592Z,4.10
2018-11-28T10:51:11.874Z,4.20
2018-11-28T10:53:40.187Z,4.20
2018-11-28T10:56:08.531Z,4.30
2018-11-28T10:58:36.864Z,4.40
2018-11-28T11:03:15.272Z,4.40
2018-11-28T11:05:49.004Z,4.40
2018-11-28T11:08:32.720Z,4.40
2018-11-28T11:11:06.467Z,4.50
2018-11-28T11:13:41.263Z,4.50
2018-11-28T11:16:09.966Z,4.60
2018-11-28T11:18:38.271Z,4.70
2018-11-28T11:21:06.571Z,4.80
2018-11-28T11:23:34.834Z,4.80
2018-11-28T11:26:03.123Z,4.90
2018-11-28T11:28:31.535Z,5.00
2018-11-28T11:30:59.811Z,5.10
2018-11-28T11:33:28.095Z,5.10
2018-11-28T11:35:56.384Z,5.10
2018-11-28T11:38:24.963Z,5.20
2018-11-28T11:40:53.275Z,5.30
2018-11-28T11:43:21.627Z,5.20
2018-11-28T11:45:50.197Z,5.40
2018-11-28T11:48:18.515Z,5.40
2018-11-28T11:50:46.801Z,5.40
2018-11-28T11:53:15.065Z,5.40
2018-11-28T11:55:43.543Z,5.50
2018-11-28T11:58:11.936Z,5.50
2018-11-28T12:00:41.803Z,5.50
2018-11-28T12:03:12.260Z,5.50
2018-11-28T12:05:42.176Z,5.60
2018-11-28T12:08:10.552Z,5.70
2018-11-28T12:10:39.104Z,5.70
2018-11-28T12:13:07.422Z,5.80
2018-11-28T12:15:35.928Z,5.80
2018-11-28T12:18:04.217Z,5.80
2018-11-28T12:20:37.560Z,5.80
2018-11-28T12:23:06.008Z,5.90
2018-11-28T12:25:34.296Z,5.90
2018-11-28T12:28:02.712Z,5.90
2018-11-28T12:30:31.020Z,5.90
2018-11-28T12:32:59.299Z,6.00
2018-11-28T12:35:27.596Z,6.10
2018-11-28T12:37:55.895Z,6.10
2018-11-28T12:40:24.326Z,6.10
2018-11-28T12:42:53.019Z,6.10
2018-11-28T12:45:21.632Z,6.00
2018-11-28T12:47:50.049Z,6.10
2018-11-28T12:50:20.347Z,6.10
2018-11-28T12:52:48.648Z,6.10
2018-11-28T12:55:17.357Z,6.20
2018-11-28T12:57:45.725Z,6.20
2018-11-28T13:00:16.853Z,6.30
2018-11-28T13:02:45.160Z,6.30
2018-11-28T13:05:15.088Z,6.40
2018-11-28T13:07:43.472Z,6.40
2018-11-28T13:10:13.868Z,6.50
2018-11-28T13:12:42.525Z,6.50
2018-11-28T13:15:15.828Z,6.50
2018-11-28T13:17:44.088Z,6.50
2018-11-28T13:20:14.205Z,6.50
2018-11-28T13:22:42.664Z,6.60
2018-11-28T13:25:13.129Z,6.60
2018-11-28T13:27:41.596Z,6.60
2018-11-28T13:30:19.120Z,6.70
2018-11-28T13:32:48.053Z,6.80
2018-11-28T13:35:18.419Z,6.80
2018-11-28T13:37:47.696Z,6.90
2018-11-28T13:40:17.760Z,6.90
2018-11-28T13:42:46.076Z,7.00
2018-11-28T13:45:18.680Z,7.00
2018-11-28T13:47:50.080Z,7.00
2018-11-28T13:50:18.353Z,7.00
2018-11-28T13:52:46.645Z,7.00
2018-11-28T13:55:42.197Z,7.10
2018-11-28T13:57:54.672Z,7.00
2018-11-28T14:00:22.937Z,7.00
2018-11-28T14:02:51.264Z,7.10
2018-11-28T14:05:19.517Z,7.00
2018-11-28T14:07:47.821Z,7.10
2018-11-28T14:10:16.194Z,7.10
2018-11-28T14:12:44.567Z,7.10
2018-11-28T14:15:14.971Z,7.10
2018-11-28T14:17:45.729Z,7.10
2018-11-28T14:20:14.069Z,7.10
2018-11-28T14:22:42.346Z,7.10
2018-11-28T14:25:11.950Z,7.20
2018-11-28T14:27:40.422Z,7.10
2018-11-28T14:30:15.886Z,7.10
2018-11-28T14:32:44.510Z,7.10
2018-11-28T14:35:12.943Z,7.20
2018-11-28T14:37:41.318Z,7.10
2018-11-28T14:40:11.317Z,7.20
2018-11-28T14:42:39.589Z,7.20
2018-11-28T14:45:11.501Z,7.20
2018-11-28T14:47:39.833Z,7.20
2018-11-28T14:50:10.798Z,7.30
2018-11-28T14:52:39.173Z,7.40
2018-11-28T14:55:13.505Z,7.40
2018-11-28T14:57:41.806Z,7.40
2018-11-28T15:00:11.982Z,7.50
2018-11-28T15:02:40.521Z,7.50
2018-11-28T15:05:18.706Z,7.50
2018-11-28T15:07:47.298Z,7.50
2018-11-28T15:10:15.946Z,7.50
2018-11-28T15:12:44.235Z,7.40
2018-11-28T15:15:12.726Z,7.50
2018-11-28T15:17:41.070Z,7.40
2018-11-28T15:20:09.924Z,7.40
2018-11-28T15:22:38.198Z,7.40
2018-11-28T15:25:08.831Z,7.40
2018-11-28T15:27:37.082Z,7.40
2018-11-28T15:30:06.458Z,7.40
2018-11-28T15:32:34.927Z,7.40
2018-11-28T15:35:03.252Z,7.40
2018-11-28T15:37:31.778Z,7.40
2018-11-28T15:40:00.047Z,7.40
2018-11-28T15:42:28.384Z,7.40
2018-11-28T15:44:56.655Z,7.30
2018-11-28T15:47:25.026Z,7.40
2018-11-28T15:49:53.325Z,7.40
2018-11-28T15:52:21.663Z,7.30
2018-11-28T15:54:49.987Z,7.30
2018-11-28T15:57:18.266Z,7.30
2018-11-28T15:59:46.779Z,7.30
2018-11-28T16:02:15.134Z,7.30
2018-11-28T16:04:44.307Z,7.30
2018-11-28T16:07:12.691Z,7.30
2018-11-28T16:10:55.614Z,7.30
2018-11-28T16:13:25.107Z,7.20
2018-11-28T16:15:54.904Z,7.20
2018-11-28T16:18:23.271Z,7.20
2018-11-28T16:25:47.780Z,7.20
2018-11-28T16:28:16.165Z,7.20
2018-11-28T16:30:51.043Z,7.20
2018-11-28T16:33:19.389Z,7.20
2018-11-28T16:39:11.474Z,7.20
2018-11-28T16:41:40.291Z,7.20
2018-11-28T16:44:08.619Z,7.20
2018-11-28T16:46:37.031Z,7.20
2018-11-28T16:49:05.487Z,7.20
2018-11-28T16:51:33.751Z,7.20
2018-11-28T16:54:03.031Z,7.20
2018-11-28T16:56:31.379Z,7.20
2018-11-28T18:23:09.331Z,7.20
2018-11-28T18:25:38.231Z,6.40
2018-11-28T18:28:07.528Z,6.40
2018-11-28T18:30:35.889Z,6.30
2018-11-28T18:33:04.672Z,6.40
2018-11-28T18:35:37.901Z,6.40
2018-11-28T18:58:20.648Z,6.20
2018-11-28T19:04:31.080Z,6.20
2018-11-28T19:25:49.959Z,6.10
2018-11-28T19:33:20.941Z,6.00
2018-11-28T19:35:57.961Z,6.10
2018-11-28T19:38:32.845Z,6.10
2018-11-28T19:41:08.620Z,6.20
2018-11-28T19:43:46.701Z,6.20
2018-11-28T19:46:37.407Z,6.20
2018-11-28T19:52:21.330Z,6.20
2018-11-28T19:54:50.713Z,6.20
2018-11-28T19:57:24.805Z,6.20
2018-11-28T19:59:53.264Z,6.20
2018-11-28T20:02:23.893Z,6.20
2018-11-28T20:04:56.348Z,6.20
2018-11-28T20:07:26.273Z,6.30
2018-11-28T20:09:59.683Z,6.20
2018-11-28T20:12:29.140Z,6.30
2018-11-28T20:21:28.573Z,6.30
2018-11-28T20:32:06.542Z,6.40
2018-11-28T20:34:42.630Z,6.30
2018-11-28T20:37:13.634Z,6.40
2018-11-28T20:39:43.005Z,6.40
2018-11-28T20:42:18.806Z,6.40
2018-11-28T20:44:48.374Z,6.40
2018-11-28T20:47:19.585Z,6.40
2018-11-28T20:49:51.260Z,6.40
2018-11-28T20:52:21.817Z,6.50
2018-11-28T20:54:58.082Z,6.40
2018-11-28T20:57:30.857Z,6.50
2018-11-28T21:00:03.553Z,6.50
2018-11-28T21:02:39.882Z,6.50
2018-11-28T21:05:13.433Z,6.50
2018-11-28T21:07:44.901Z,6.50
2018-11-28T21:10:25.430Z,6.60
2018-11-28T21:12:55.250Z,6.50
2018-11-28T21:15:27.961Z,6.50
2018-11-28T21:17:58.262Z,6.50
2018-11-28T21:20:29.294Z,6.50
2018-11-28T21:23:08.602Z,6.50
2018-11-28T21:25:46.266Z,6.60
2018-11-28T21:28:18.770Z,6.60
2018-11-28T21:30:50.369Z,6.60
2018-11-28T21:33:22.150Z,6.60
2018-11-28T21:35:54.626Z,6.60
2018-11-28T21:38:23.066Z,6.70
2018-11-28T21:40:51.335Z,6.70
2018-11-28T21:43:19.621Z,6.70
2018-11-28T21:45:47.918Z,6.70
2018-11-28T21:48:16.178Z,6.70
2018-11-28T21:50:44.666Z,6.80
2018-11-28T21:53:12.943Z,6.80
2018-11-28T21:55:41.279Z,6.80
2018-11-28T21:58:09.531Z,6.90
2018-11-28T22:00:37.822Z,6.90
2018-11-28T22:03:07.262Z,6.90
2018-11-28T22:05:35.542Z,6.90
2018-11-28T22:08:03.911Z,6.90
2018-11-28T22:10:32.367Z,6.90
2018-11-28T22:13:00.680Z,6.90
2018-11-28T22:15:28.975Z,7.00
2018-11-28T22:17:58.211Z,6.90
2018-11-28T22:20:26.979Z,6.90
2018-11-28T22:22:55.262Z,6.90
2018-11-28T22:25:26.028Z,6.90
2018-11-28T22:27:54.471Z,6.90
2018-11-28T22:30:24.937Z,6.90
2018-11-28T22:32:53.242Z,6.90
2018-11-28T22:35:21.567Z,7.00
2018-11-28T22:37:49.898Z,7.00
2018-11-28T22:40:24.411Z,7.10
2018-11-28T22:42:52.683Z,7.00
2018-11-28T22:45:22.215Z,7.10
2018-11-28T22:47:50.479Z,7.10
2018-11-28T22:50:18.747Z,7.10
2018-11-28T22:52:47.076Z,7.10
2018-11-28T22:55:16.196Z,7.10
2018-11-28T22:57:44.592Z,7.20
2018-11-28T23:00:28.037Z,7.20
2018-11-28T23:03:00.671Z,7.20
2018-11-28T23:05:59.715Z,7.20
2018-11-28T23:08:27.956Z,7.30
2018-11-28T23:10:56.229Z,7.30
2018-11-28T23:13:25.084Z,7.40
2018-11-28T23:15:53.366Z,7.40
2018-11-28T23:18:21.643Z,7.40
2018-11-28T23:20:49.939Z,7.40
2018-11-28T23:23:18.219Z,7.40
2018-11-28T23:25:46.500Z,7.50
2018-11-28T23:28:14.848Z,7.50
2018-11-28T23:30:43.108Z,7.50
2018-11-28T23:33:15.960Z,7.50
2018-11-28T23:35:39.678Z,7.50
2018-11-28T23:38:08.101Z,7.50
2018-11-28T23:40:36.372Z,7.60
2018-11-28T23:43:04.923Z,7.60
2018-11-28T23:45:33.168Z,7.60
2018-11-28T23:48:01.431Z,7.70
2018-11-28T23:50:29.692Z,7.60
2018-11-28T23:52:57.968Z,7.60
2018-11-28T23:55:28.300Z,7.60
2018-11-28T23:57:56.636Z,7.70
